Time;durP1;ratioP1;P1;durP2;ratioP2;P2;SDS_P1;SDS_P2;PMS_P1;PMS_P2;Temp;Humidity;BMP_temperature;BMP_pressure;BME280_temperature;BME280_humidity;BME280_pressure;Samples;Min_cycle;Max_cycle;Signal;HPM_P1;HPM_P2
2022/08/25 00:01:50;;;;;;;3.08;0.90;;;25.80;41.80;;;;;;2270264;55;21032;-72
2022/08/25 00:04:17;;;;;;;1.90;0.88;;;25.70;42.00;;;;;;2259251;55;21921;-72
2022/08/25 00:06:43;;;;;;;1.90;0.85;;;25.60;41.90;;;;;;2290500;55;20940;-73
2022/08/25 00:09:11;;;;;;;2.42;0.75;;;25.60;42.10;;;;;;2263459;56;21783;-73
2022/08/25 00:11:40;;;;;;;3.87;1.00;;;25.50;42.10;;;;;;2263269;55;21012;-75
2022/08/25 00:14:10;;;;;;;2.20;0.90;;;25.40;42.70;;;;;;2265296;56;20984;-74
2022/08/25 00:16:37;;;;;;;1.90;0.93;;;25.40;42.40;;;;;;2261446;55;21015;-72
2022/08/25 00:19:06;;;;;;;1.62;0.80;;;25.20;42.20;;;;;;2260192;55;21043;-73
2022/08/25 00:21:33;;;;;;;1.75;0.88;;;25.30;42.50;;;;;;2263029;55;21036;-74
2022/08/25 00:24:01;;;;;;;2.50;0.77;;;25.20;42.50;;;;;;2266160;55;20935;-73
2022/08/25 00:26:27;;;;;;;2.10;0.80;;;25.20;42.70;;;;;;2277580;55;21567;-72
2022/08/25 00:28:54;;;;;;;2.47;0.85;;;25.10;42.70;;;;;;2289853;55;21063;-74
2022/08/25 00:31:22;;;;;;;1.80;0.80;;;25.00;42.70;;;;;;2329667;55;21472;-72
2022/08/25 00:33:48;;;;;;;1.42;0.68;;;25.00;42.80;;;;;;2266230;55;21047;-72
2022/08/25 00:36:17;;;;;;;1.48;0.75;;;25.00;42.90;;;;;;2266327;55;21027;-71
2022/08/25 00:38:43;;;;;;;1.35;0.60;;;24.90;43.00;;;;;;2266100;55;20979;-72
2022/08/25 00:41:11;;;;;;;1.42;0.77;;;24.80;43.00;;;;;;2266106;55;21019;-72
2022/08/25 00:44:21;;;;;;;1.92;0.80;;;24.80;43.10;;;;;;2263213;56;21000;-72
2022/08/25 00:46:49;;;;;;;2.05;0.73;;;24.80;43.90;;;;;;2267757;55;20987;-72
2022/08/25 00:49:35;;;;;;;1.62;0.70;;;24.70;43.30;;;;;;2265951;55;21084;-72
2022/08/25 00:52:04;;;;;;;1.67;0.80;;;24.60;43.70;;;;;;2265968;55;21016;-72
2022/08/25 00:54:52;;;;;;;1.95;1.00;;;24.60;43.40;;;;;;2265868;55;20952;-72
2022/08/25 00:57:22;;;;;;;1.80;0.70;;;24.50;43.70;;;;;;2266684;55;21705;-72
2022/08/25 00:59:48;;;;;;;1.55;0.70;;;24.50;43.70;;;;;;2263289;55;20961;-72
2022/08/25 01:02:15;;;;;;;1.80;0.70;;;24.40;43.60;;;;;;2266097;55;20971;-73
2022/08/25 01:04:42;;;;;;;2.03;0.82;;;24.40;43.70;;;;;;2410054;55;21019;-72
2022/08/25 01:07:12;;;;;;;1.48;0.70;;;24.40;43.80;;;;;;2265200;56;20944;-72
2022/08/25 01:09:41;;;;;;;1.62;0.75;;;24.30;43.90;;;;;;2262675;56;21040;-72
2022/08/25 01:12:07;;;;;;;2.00;0.90;;;24.30;44.00;;;;;;2264559;55;21075;-75
2022/08/25 01:14:34;;;;;;;2.00;1.00;;;24.30;44.20;;;;;;2267255;55;21044;-74
2022/08/25 01:17:01;;;;;;;1.70;0.75;;;24.20;44.50;;;;;;2262791;55;20975;-73
2022/08/25 01:19:32;;;;;;;1.62;0.70;;;24.20;44.60;;;;;;2266376;55;21384;-73
2022/08/25 01:22:03;;;;;;;1.17;0.60;;;24.20;44.60;;;;;;2262777;55;21053;-72
2022/08/25 01:24:40;;;;;;;1.75;0.80;;;24.20;44.60;;;;;;2493076;55;21338;-75
2022/08/25 01:27:08;;;;;;;1.98;0.80;;;24.10;44.80;;;;;;2355329;55;20967;-73
2022/08/25 01:29:35;;;;;;;1.50;0.70;;;24.10;44.50;;;;;;2266064;55;22049;-73
2022/08/25 01:32:05;;;;;;;1.70;0.80;;;24.00;44.50;;;;;;2455185;55;20975;-74
2022/08/25 01:34:32;;;;;;;4.07;0.88;;;24.00;44.70;;;;;;2265998;55;20952;-72
2022/08/25 01:37:01;;;;;;;2.20;0.90;;;23.90;44.70;;;;;;2265702;55;21756;-72
2022/08/25 01:39:29;;;;;;;1.60;0.70;;;23.90;44.80;;;;;;2266227;55;21003;-73
2022/08/25 01:47:00;;;;;;;2.08;1.02;;;23.80;44.80;;;;;;2268488;55;21162;-75
2022/08/25 01:49:27;;;;;;;2.95;0.70;;;23.80;44.80;;;;;;2266128;55;21511;-72
2022/08/25 01:52:48;;;;;;;1.80;0.57;;;23.70;44.50;;;;;;2284027;55;20956;-72
2022/08/25 01:55:15;;;;;;;1.65;0.80;;;23.60;44.90;;;;;;2268512;55;21012;-75
2022/08/25 01:57:41;;;;;;;1.92;0.80;;;23.50;44.80;;;;;;2261294;55;21075;-73
2022/08/25 02:00:08;;;;;;;2.00;0.80;;;23.50;45.00;;;;;;2324159;55;21000;-72
2022/08/25 02:02:35;;;;;;;1.37;0.68;;;23.40;45.10;;;;;;2333723;55;21536;-73
2022/08/25 02:05:03;;;;;;;3.22;1.00;;;23.40;45.30;;;;;;2266362;55;21078;-73
2022/08/25 02:07:29;;;;;;;1.98;0.88;;;23.30;45.60;;;;;;2266392;55;21112;-72
2022/08/25 02:09:55;;;;;;;1.67;0.88;;;23.30;45.80;;;;;;2396947;55;21841;-73
2022/08/25 02:12:22;;;;;;;2.08;0.90;;;23.20;45.70;;;;;;2357116;55;20972;-73
2022/08/25 02:14:48;;;;;;;1.92;0.85;;;23.20;46.10;;;;;;2266079;55;21778;-72
2022/08/25 02:18:01;;;;;;;1.77;0.88;;;23.20;46.20;;;;;;2319006;55;21132;-72
2022/08/25 02:20:28;;;;;;;1.90;0.90;;;23.20;47.00;;;;;;2491502;55;20936;-72
2022/08/25 02:26:22;;;;;;;1.62;0.88;;;23.10;46.80;;;;;;2408056;55;20979;-72
2022/08/25 02:28:49;;;;;;;1.70;0.80;;;23.00;46.10;;;;;;2266156;55;21734;-75
2022/08/25 02:31:17;;;;;;;1.65;0.82;;;23.00;46.20;;;;;;2321711;55;21001;-72
2022/08/25 02:33:43;;;;;;;1.83;0.90;;;23.00;46.50;;;;;;2266698;55;20963;-73
2022/08/25 02:36:10;;;;;;;1.95;0.90;;;23.00;46.50;;;;;;2263804;55;21031;-73
2022/08/25 02:38:38;;;;;;;2.10;0.90;;;23.00;46.60;;;;;;2261116;55;21546;-72
2022/08/25 02:41:12;;;;;;;2.37;1.00;;;22.90;46.50;;;;;;2263908;56;20952;-72
2022/08/25 02:43:39;;;;;;;1.75;0.80;;;22.90;46.90;;;;;;2492024;55;20951;-73
2022/08/25 02:49:45;;;;;;;1.70;0.75;;;22.90;47.10;;;;;;2268291;56;20972;-72
2022/08/25 02:52:12;;;;;;;2.35;0.82;;;22.80;46.50;;;;;;2266587;55;20944;-72
2022/08/25 02:54:38;;;;;;;1.48;0.77;;;22.80;46.60;;;;;;2322542;54;21839;-72
2022/08/25 02:57:06;;;;;;;2.05;0.85;;;22.80;46.80;;;;;;2264492;55;21462;-73
2022/08/25 02:59:32;;;;;;;1.60;0.80;;;22.80;46.80;;;;;;2293138;55;20954;-72
2022/08/25 03:01:59;;;;;;;1.90;0.80;;;22.70;46.70;;;;;;2265976;55;20979;-72
2022/08/25 03:04:27;;;;;;;1.17;0.70;;;22.70;46.90;;;;;;2259741;55;20969;-74
2022/08/25 03:06:54;;;;;;;1.58;0.70;;;22.70;47.00;;;;;;2266118;55;20951;-73
2022/08/25 03:09:22;;;;;;;2.10;0.98;;;22.60;46.90;;;;;;2265889;55;21035;-73
2022/08/25 03:15:54;;;;;;;1.92;0.82;;;22.60;47.70;;;;;;2266519;55;20956;-73
2022/08/25 03:18:22;;;;;;;2.25;0.90;;;22.60;47.70;;;;;;2267075;55;21012;-73
2022/08/25 03:20:48;;;;;;;1.77;0.73;;;22.50;47.20;;;;;;2266131;55;20936;-73
2022/08/25 03:23:14;;;;;;;3.00;1.08;;;22.50;47.40;;;;;;2257263;55;20967;-73
2022/08/25 03:28:25;;;;;;;1.70;0.73;;;22.40;47.50;;;;;;2268669;55;21028;-72
2022/08/25 03:31:44;;;;;;;2.72;0.77;;;22.40;47.50;;;;;;2260530;55;20987;-73
2022/08/25 03:34:11;;;;;;;1.73;0.80;;;22.40;47.90;;;;;;2266776;55;20988;-73
2022/08/25 03:36:38;;;;;;;3.15;0.93;;;22.30;48.00;;;;;;2257850;56;21514;-72
2022/08/25 03:42:39;;;;;;;1.65;0.77;;;22.30;48.00;;;;;;2267728;55;20947;-73
2022/08/25 03:45:10;;;;;;;3.17;0.90;;;22.20;47.60;;;;;;2263732;56;21000;-72
2022/08/25 03:47:37;;;;;;;1.70;0.80;;;22.20;47.50;;;;;;2333366;55;21009;-72
2022/08/25 03:50:05;;;;;;;1.87;0.90;;;22.10;47.50;;;;;;2262064;55;20960;-74
2022/08/25 03:52:31;;;;;;;1.45;0.70;;;22.10;47.60;;;;;;2270277;55;21055;-72
2022/08/25 03:54:58;;;;;;;3.12;0.98;;;22.10;47.60;;;;;;2264790;56;20989;-75
2022/08/25 03:57:24;;;;;;;1.90;0.80;;;22.00;47.70;;;;;;2259442;55;20956;-72
2022/08/25 03:59:51;;;;;;;2.12;1.00;;;22.00;48.00;;;;;;2263195;55;21853;-72
2022/08/25 04:02:17;;;;;;;1.98;0.90;;;22.00;48.40;;;;;;2268978;55;21045;-72
2022/08/25 04:04:44;;;;;;;1.87;0.82;;;21.90;48.50;;;;;;2262032;55;21019;-72
2022/08/25 04:07:10;;;;;;;2.10;1.15;;;21.90;48.50;;;;;;2266604;59;21071;-72
2022/08/25 04:09:36;;;;;;;2.00;1.00;;;21.90;48.50;;;;;;2461324;55;20926;-72
2022/08/25 04:12:03;;;;;;;2.12;0.90;;;21.80;48.40;;;;;;2266494;55;21039;-72
2022/08/25 04:14:30;;;;;;;1.90;1.00;;;21.90;48.50;;;;;;2265858;55;20967;-74
2022/08/25 04:16:56;;;;;;;2.70;1.25;;;21.80;48.40;;;;;;2266097;55;21047;-74
2022/08/25 04:19:22;;;;;;;1.65;0.90;;;21.80;48.60;;;;;;2266469;55;21494;-74
2022/08/25 04:21:50;;;;;;;1.20;0.60;;;21.80;48.60;;;;;;2254729;55;20951;-74
2022/08/25 04:24:16;;;;;;;1.77;0.77;;;21.80;48.60;;;;;;2266218;55;21030;-74
2022/08/25 04:27:23;;;;;;;2.33;1.10;;;21.70;48.50;;;;;;2344365;55;20975;-74
2022/08/25 04:29:49;;;;;;;2.12;0.82;;;21.80;49.30;;;;;;2495434;55;21055;-74
2022/08/25 04:32:15;;;;;;;2.00;1.00;;;21.70;48.60;;;;;;2265929;56;20919;-73
2022/08/25 04:34:42;;;;;;;1.90;0.82;;;21.70;48.80;;;;;;2259125;55;20971;-72
2022/08/25 04:37:10;;;;;;;2.17;1.05;;;21.70;48.80;;;;;;2265693;55;20988;-74
2022/08/25 04:40:16;;;;;;;2.85;0.80;;;21.70;48.80;;;;;;2259289;55;21286;-74
2022/08/25 04:42:43;;;;;;;1.92;0.80;;;21.70;49.20;;;;;;2270299;55;20936;-72
2022/08/25 04:45:10;;;;;;;1.75;0.82;;;21.60;48.80;;;;;;2314515;55;20959;-72
2022/08/25 04:48:06;;;;;;;1.37;0.70;;;21.60;48.90;;;;;;2266351;55;21886;-72
2022/08/25 04:51:04;;;;;;;1.77;0.60;;;21.60;49.40;;;;;;2261952;55;20943;-74
2022/08/25 04:56:57;;;;;;;1.40;0.52;;;21.60;49.40;;;;;;2304029;55;20999;-74
2022/08/25 04:59:42;;;;;;;2.00;0.77;;;21.50;48.80;;;;;;2266348;55;21448;-76
2022/08/25 05:02:42;;;;;;;1.85;0.80;;;21.50;49.30;;;;;;2266550;55;21580;-76
2022/08/25 05:05:08;;;;;;;1.80;0.70;;;21.50;49.80;;;;;;2265146;55;20968;-77
2022/08/25 05:07:46;;;;;;;1.52;0.80;;;21.50;49.20;;;;;;2263945;55;21036;-75
2022/08/25 05:10:13;;;;;;;2.37;1.00;;;21.40;49.50;;;;;;2259885;55;21495;-75
2022/08/25 05:12:39;;;;;;;1.95;0.90;;;21.40;49.20;;;;;;2421494;55;20948;-74
2022/08/25 05:15:49;;;;;;;1.80;0.90;;;21.40;49.30;;;;;;2259625;55;21039;-74
2022/08/25 05:18:33;;;;;;;1.90;0.80;;;21.40;49.50;;;;;;2259922;56;22087;-74
2022/08/25 05:21:07;;;;;;;1.62;0.73;;;21.40;49.90;;;;;;2264956;55;20989;-75
2022/08/25 05:23:34;;;;;;;1.83;0.77;;;21.40;49.80;;;;;;2266252;55;21749;-74
2022/08/25 05:26:05;;;;;;;2.25;0.95;;;21.40;49.60;;;;;;2443012;55;20948;-75
2022/08/25 05:32:02;;;;;;;2.10;0.82;;;21.40;50.40;;;;;;2265730;55;20976;-74
2022/08/25 05:34:29;;;;;;;3.03;0.88;;;21.40;49.80;;;;;;2265895;55;21019;-75
2022/08/25 05:37:10;;;;;;;2.85;0.88;;;21.40;49.70;;;;;;2331665;55;21543;-73
2022/08/25 05:39:38;;;;;;;2.40;1.00;;;21.40;50.80;;;;;;2266260;55;20979;-74
2022/08/25 05:42:04;;;;;;;1.90;0.80;;;21.30;49.80;;;;;;2348046;55;20953;-74
2022/08/25 05:44:30;;;;;;;1.65;0.90;;;21.40;50.00;;;;;;2257981;55;20971;-74
2022/08/25 05:46:57;;;;;;;1.67;0.85;;;21.30;50.10;;;;;;2267060;55;21014;-74
2022/08/25 05:50:18;;;;;;;2.30;1.10;;;21.40;50.30;;;;;;2260889;55;21424;-74
2022/08/25 05:53:25;;;;;;;2.83;1.20;;;21.30;50.70;;;;;;2259497;55;20991;-75
2022/08/25 05:55:52;;;;;;;2.08;1.00;;;21.40;51.00;;;;;;2260437;55;20947;-75
2022/08/25 06:04:50;;;;;;;2.00;0.70;;;21.40;50.90;;;;;;2270059;55;20967;-74
2022/08/25 06:07:17;;;;;;;2.10;0.98;;;21.40;50.60;;;;;;2259951;55;20991;-75
2022/08/25 06:09:45;;;;;;;2.17;1.17;;;21.40;50.90;;;;;;2258983;55;21512;-74
2022/08/25 06:12:16;;;;;;;1.65;0.88;;;21.40;51.00;;;;;;2266790;55;20972;-74
2022/08/25 06:14:43;;;;;;;2.20;1.10;;;21.50;51.30;;;;;;2269223;55;21068;-72
2022/08/25 06:17:09;;;;;;;2.20;1.10;;;21.50;51.30;;;;;;2265622;55;21008;-73
2022/08/25 06:19:35;;;;;;;3.30;1.00;;;21.50;51.50;;;;;;2259768;55;21856;-72
2022/08/25 06:22:02;;;;;;;2.28;1.10;;;21.60;51.60;;;;;;2266028;55;20980;-72
2022/08/25 06:24:28;;;;;;;2.62;1.35;;;21.60;51.80;;;;;;2259636;55;20987;-73
2022/08/25 06:26:55;;;;;;;3.92;1.20;;;21.70;51.90;;;;;;2260375;55;21055;-74
2022/08/25 06:29:21;;;;;;;3.25;1.27;;;21.80;52.10;;;;;;2496657;55;21731;-74
2022/08/25 06:31:48;;;;;;;2.55;1.27;;;21.80;52.10;;;;;;2259454;56;21561;-72
2022/08/25 06:34:17;;;;;;;2.45;1.27;;;21.90;52.30;;;;;;2295302;55;21069;-72
2022/08/25 06:36:44;;;;;;;2.35;1.30;;;22.00;52.60;;;;;;2265814;55;20975;-72
2022/08/25 06:39:10;;;;;;;2.30;1.30;;;22.10;52.50;;;;;;2256742;55;21023;-73
2022/08/25 06:45:21;;;;;;;13.93;8.05;;;22.20;53.10;;;;;;2266412;55;21062;-72
2022/08/25 06:47:47;;;;;;;20.50;11.27;;;22.30;52.50;;;;;;2260385;55;21027;-72
2022/08/25 06:50:14;;;;;;;17.02;9.80;;;22.40;52.70;;;;;;2268735;55;21000;-73
2022/08/25 06:52:58;;;;;;;12.75;7.85;;;22.50;52.80;;;;;;2263790;55;21043;-72
2022/08/25 06:55:24;;;;;;;10.55;5.37;;;22.50;53.40;;;;;;2296970;55;21045;-73
2022/08/25 06:57:54;;;;;;;5.90;3.42;;;22.60;52.90;;;;;;2426215;55;20975;-73
2022/08/25 07:00:21;;;;;;;4.65;2.62;;;22.70;53.10;;;;;;2253447;55;21031;-73
2022/08/25 07:02:57;;;;;;;3.97;2.25;;;22.80;53.00;;;;;;2265119;55;20960;-73
2022/08/25 07:05:35;;;;;;;4.05;2.00;;;22.90;53.50;;;;;;2260249;55;20991;-73
2022/08/25 07:08:10;;;;;;;4.05;2.00;;;23.10;53.60;;;;;;2260813;55;21839;-73
2022/08/25 07:10:36;;;;;;;3.50;2.10;;;23.10;53.40;;;;;;2266997;55;20979;-73
2022/08/25 07:13:03;;;;;;;3.80;2.00;;;23.20;53.60;;;;;;2272535;55;21000;-75
2022/08/25 07:15:30;;;;;;;3.12;1.48;;;23.40;53.90;;;;;;2258050;56;20968;-74
2022/08/25 07:17:56;;;;;;;3.58;1.90;;;23.50;53.80;;;;;;2262058;55;21464;-73
2022/08/25 07:20:23;;;;;;;3.15;1.83;;;23.60;53.80;;;;;;2262493;55;20975;-73
2022/08/25 07:22:49;;;;;;;3.12;1.50;;;23.70;54.00;;;;;;2389363;55;21012;-74
2022/08/25 07:25:15;;;;;;;3.55;1.58;;;23.80;54.00;;;;;;2306577;55;21006;-73
2022/08/25 07:27:42;;;;;;;2.80;1.30;;;23.90;53.90;;;;;;2265879;55;20971;-73
2022/08/25 07:30:10;;;;;;;2.90;1.17;;;24.10;53.90;;;;;;2266159;55;21015;-73
2022/08/25 07:32:37;;;;;;;1.98;1.00;;;24.20;53.90;;;;;;2260569;55;21028;-74
2022/08/25 07:35:22;;;;;;;2.25;1.10;;;24.30;53.90;;;;;;2286573;55;20979;-73
2022/08/25 07:38:40;;;;;;;2.33;1.23;;;24.40;53.90;;;;;;2295706;55;20954;-73
2022/08/25 07:44:34;;;;;;;2.08;1.00;;;24.80;54.20;;;;;;2266395;55;20983;-75
2022/08/25 07:50:45;;;;;;;2.40;1.25;;;25.10;53.70;;;;;;2318840;55;20972;-74
2022/08/25 07:53:11;;;;;;;1.67;0.98;;;25.30;53.60;;;;;;2374861;55;20959;-73
2022/08/25 07:55:38;;;;;;;3.60;1.10;;;25.40;53.50;;;;;;2276817;55;21035;-75
2022/08/25 07:58:05;;;;;;;2.17;1.00;;;25.50;53.60;;;;;;2267017;55;20987;-73
2022/08/25 08:01:12;;;;;;;3.42;1.33;;;25.60;53.50;;;;;;2265987;55;21086;-75
2022/08/25 08:03:38;;;;;;;3.28;1.23;;;25.80;53.70;;;;;;2263601;55;21042;-73
2022/08/25 08:07:07;;;;;;;2.55;1.17;;;25.90;53.30;;;;;;2262525;56;20964;-74
2022/08/25 08:10:05;;;;;;;2.10;1.20;;;26.00;53.40;;;;;;2266822;55;21111;-74
2022/08/25 08:12:53;;;;;;;2.20;1.10;;;26.20;53.10;;;;;;2345487;55;21023;-75
2022/08/25 08:15:20;;;;;;;2.42;1.20;;;26.30;52.80;;;;;;2261266;55;21071;-73
2022/08/25 08:17:47;;;;;;;2.28;1.10;;;26.40;52.70;;;;;;2268675;55;20975;-73
2022/08/25 08:20:13;;;;;;;2.40;1.30;;;26.50;52.60;;;;;;2261979;55;21027;-76
2022/08/25 08:22:41;;;;;;;2.83;1.37;;;26.60;52.50;;;;;;2263821;55;20940;-75
2022/08/25 08:25:08;;;;;;;4.15;1.30;;;26.80;52.40;;;;;;2266243;55;21668;-76
2022/08/25 08:27:34;;;;;;;2.78;1.27;;;26.80;52.20;;;;;;2288103;55;20991;-74
2022/08/25 08:30:01;;;;;;;2.60;1.33;;;26.90;52.00;;;;;;2268905;55;20959;-77
2022/08/25 08:32:29;;;;;;;3.37;1.40;;;27.10;52.10;;;;;;2263342;55;21430;-74
2022/08/25 08:35:00;;;;;;;2.35;1.15;;;27.20;52.00;;;;;;2337335;55;20994;-73
2022/08/25 08:37:26;;;;;;;2.35;1.37;;;27.20;51.80;;;;;;2302217;55;20936;-76
2022/08/25 08:39:54;;;;;;;2.35;1.20;;;27.30;51.60;;;;;;2266480;55;20955;-75
2022/08/25 08:43:23;;;;;;;2.80;1.55;;;27.40;51.50;;;;;;2263709;55;21107;-73
2022/08/25 08:45:50;;;;;;;2.35;1.40;;;27.60;51.20;;;;;;2266183;55;21463;-74
2022/08/25 08:49:00;;;;;;;2.15;1.15;;;27.70;51.10;;;;;;2260510;55;21001;-75
2022/08/25 08:51:35;;;;;;;2.53;1.23;;;27.80;50.90;;;;;;2260487;55;20991;-77
2022/08/25 08:54:17;;;;;;;2.28;1.20;;;27.90;50.60;;;;;;2265634;55;21504;-76
2022/08/25 08:56:44;;;;;;;;;;;28.00;50.60;;;;;;2301698;55;20992;-73
2022/08/25 08:59:20;;;;;;;2.28;1.17;;;28.00;50.50;;;;;;2265788;55;20357;-73
2022/08/25 09:01:49;;;;;;;2.47;1.15;;;28.10;50.30;;;;;;2257487;55;21043;-73
2022/08/25 09:05:07;;;;;;;2.30;1.10;;;28.20;50.10;;;;;;2260545;55;20960;-75
2022/08/25 09:07:39;;;;;;;2.12;1.08;;;28.20;49.90;;;;;;2266116;55;20980;-73
2022/08/25 09:10:05;;;;;;;2.25;1.23;;;28.30;49.80;;;;;;2495646;55;20940;-75
2022/08/25 09:13:18;;;;;;;2.67;1.30;;;28.40;49.70;;;;;;2258827;55;20956;-72
2022/08/25 09:18:56;;;;;;;2.50;1.20;;;28.50;49.40;;;;;;2266620;55;20924;-75
2022/08/25 09:21:33;;;;;;;2.95;1.20;;;28.70;49.30;;;;;;2266129;55;21028;-74
2022/08/25 09:28:21;;;;;;;2.35;1.40;;;28.70;49.00;;;;;;2262912;55;20953;-72
2022/08/25 09:31:01;;;;;;;2.25;0.93;;;29.00;49.10;;;;;;2268078;55;21979;-72
2022/08/25 09:33:31;;;;;;;2.03;0.95;;;29.10;48.70;;;;;;2266095;55;21990;-73
2022/08/25 09:36:00;;;;;;;2.30;1.10;;;29.10;48.50;;;;;;2316688;55;21366;-73
2022/08/25 09:38:31;;;;;;;2.30;1.25;;;29.20;48.30;;;;;;2329095;55;21019;-72
2022/08/25 09:40:58;;;;;;;4.97;1.30;;;29.30;48.10;;;;;;2266910;55;20983;-72
2022/08/25 09:43:46;;;;;;;2.47;1.23;;;29.30;48.10;;;;;;2268431;55;20991;-73
2022/08/25 09:46:27;;;;;;;2.30;1.10;;;29.40;47.40;;;;;;2262620;55;21027;-72
2022/08/25 09:48:58;;;;;;;2.10;1.10;;;29.50;47.50;;;;;;2266113;55;21047;-74
2022/08/25 09:51:32;;;;;;;2.25;1.12;;;29.60;47.40;;;;;;2256480;55;21047;-74
2022/08/25 09:54:03;;;;;;;1.92;1.10;;;29.70;47.50;;;;;;2495850;55;20944;-73
2022/08/25 09:56:31;;;;;;;2.42;1.10;;;29.70;47.80;;;;;;2255179;55;21169;-73
2022/08/25 09:59:29;;;;;;;2.10;1.12;;;29.80;47.10;;;;;;2463777;55;21737;-72
2022/08/25 10:01:57;;;;;;;2.00;0.90;;;29.90;46.50;;;;;;2265579;55;21091;-73
2022/08/25 10:04:36;;;;;;;1.80;0.90;;;29.90;46.60;;;;;;2265927;55;20987;-75
2022/08/25 10:07:20;;;;;;;2.53;1.30;;;30.00;46.20;;;;;;2274899;55;21010;-72
2022/08/25 10:10:00;;;;;;;2.55;1.15;;;30.10;46.40;;;;;;2265485;55;20955;-71
2022/08/25 10:12:45;;;;;;;2.45;1.17;;;30.10;46.00;;;;;;2262984;55;20991;-74
2022/08/25 10:15:35;;;;;;;2.08;1.10;;;30.20;45.80;;;;;;2263642;56;21035;-72
2022/08/25 10:18:28;;;;;;;2.20;1.25;;;30.30;45.50;;;;;;2327314;55;20963;-72
2022/08/25 10:21:27;;;;;;;2.75;1.12;;;30.40;45.60;;;;;;2265741;55;21028;-72
2022/08/25 10:23:57;;;;;;;2.85;1.02;;;30.50;45.20;;;;;;2259671;55;20959;-72
2022/08/25 10:28:11;;;;;;;2.20;0.95;;;30.50;45.50;;;;;;2265121;55;21027;-74
2022/08/25 10:36:41;;;;;;;2.20;1.10;;;30.70;45.10;;;;;;2268867;55;20997;-76
2022/08/25 10:39:11;;;;;;;1.87;0.75;;;30.90;45.00;;;;;;2261746;55;21656;-72
2022/08/25 10:41:56;;;;;;;1.98;1.02;;;31.00;44.90;;;;;;2266184;55;21448;-72
2022/08/25 10:54:26;;;;;;;2.25;1.05;;;31.10;44.20;;;;;;2310088;55;20959;-72
2022/08/25 10:57:02;;;;;;;1.55;0.70;;;31.30;44.20;;;;;;2266334;55;21012;-72
2022/08/25 10:59:58;;;;;;;2.53;0.80;;;31.40;43.90;;;;;;2351714;55;20972;-75
2022/08/25 11:03:57;;;;;;;2.58;1.15;;;31.40;43.50;;;;;;2260308;55;20968;-72
2022/08/25 11:06:44;;;;;;;2.10;0.90;;;31.40;43.20;;;;;;2266311;55;20984;-72
2022/08/25 11:09:13;;;;;;;2.05;0.85;;;31.50;43.10;;;;;;2266184;55;20963;-73
2022/08/25 11:11:48;;;;;;;1.83;0.82;;;31.50;43.30;;;;;;2351348;55;22113;-73
2022/08/25 11:14:19;;;;;;;1.92;0.93;;;31.60;43.00;;;;;;2266335;55;20984;-76
2022/08/25 11:17:05;;;;;;;3.15;1.00;;;31.60;42.80;;;;;;2266581;55;20952;-72
2022/08/25 11:19:44;;;;;;;1.92;1.00;;;31.70;42.20;;;;;;2262551;55;20996;-72
2022/08/25 11:22:22;;;;;;;1.90;0.93;;;31.80;42.30;;;;;;2266060;55;21011;-74
2022/08/25 11:25:12;;;;;;;1.90;1.00;;;31.80;42.00;;;;;;2262638;55;21076;-71
2022/08/25 11:28:05;;;;;;;1.90;0.90;;;31.90;41.80;;;;;;2277345;55;21452;-71
2022/08/25 11:30:32;;;;;;;2.20;1.00;;;32.00;41.80;;;;;;2265641;55;20993;-71
2022/08/25 11:33:02;;;;;;;1.73;0.90;;;32.00;41.80;;;;;;2265750;55;20939;-71
2022/08/25 11:35:34;;;;;;;2.35;1.10;;;32.10;41.60;;;;;;2265418;55;20929;-71
2022/08/25 11:38:50;;;;;;;1.55;0.70;;;32.10;41.70;;;;;;2264872;55;21528;-74
2022/08/25 11:41:45;;;;;;;2.03;1.05;;;32.10;41.40;;;;;;2262318;56;20970;-72
2022/08/25 11:44:38;;;;;;;2.30;1.00;;;32.20;41.40;;;;;;2266146;55;20995;-71
2022/08/25 11:48:11;;;;;;;;;;;32.30;41.00;;;;;;2345546;55;21015;-70
2022/08/25 11:51:18;;;;;;;1.42;0.68;;;32.40;41.40;;;;;;2265481;55;20358;-74
2022/08/25 11:53:44;;;;;;;1.55;0.75;;;32.50;40.60;;;;;;2265699;55;21416;-71
2022/08/25 11:56:29;;;;;;;2.17;1.00;;;32.50;41.00;;;;;;2266126;55;21030;-75
2022/08/25 11:58:55;;;;;;;1.70;0.80;;;32.50;40.80;;;;;;2269916;55;21738;-73
2022/08/25 12:04:58;;;;;;;1.98;0.90;;;32.60;40.70;;;;;;2265509;55;20993;-74
2022/08/25 12:11:09;;;;;;;1.17;0.57;;;32.80;39.50;;;;;;2263082;55;20967;-71
2022/08/25 12:17:24;;;;;;;1.60;0.80;;;32.80;39.70;;;;;;2265038;55;21031;-71
2022/08/25 12:19:54;;;;;;;1.90;0.80;;;32.80;39.60;;;;;;2260265;55;20939;-71
2022/08/25 12:22:43;;;;;;;2.10;0.90;;;32.90;39.60;;;;;;2495731;55;21392;-70
2022/08/25 12:25:19;;;;;;;2.08;0.90;;;32.90;39.20;;;;;;2265385;55;21086;-71
2022/08/25 12:28:05;;;;;;;2.33;0.93;;;33.00;39.40;;;;;;2268439;55;20984;-73
2022/08/25 12:30:48;;;;;;;2.25;1.00;;;33.00;39.00;;;;;;2263460;55;20963;-71
2022/08/25 12:33:53;;;;;;;2.20;0.90;;;33.10;38.90;;;;;;2259661;56;20983;-75
2022/08/25 12:39:19;;;;;;;1.98;0.80;;;33.10;38.60;;;;;;2255142;56;21084;-70
2022/08/25 12:41:56;;;;;;;1.45;0.70;;;33.20;39.30;;;;;;2253507;55;20959;-74
2022/08/25 12:44:46;;;;;;;1.73;0.82;;;33.30;38.70;;;;;;2264026;56;21856;-72
2022/08/25 12:47:47;;;;;;;2.10;1.00;;;33.30;38.40;;;;;;2268408;55;20949;-71
2022/08/25 12:50:41;;;;;;;1.95;0.80;;;33.30;38.20;;;;;;2258447;55;21042;-71
2022/08/25 12:59:59;;;;;;;2.47;0.80;;;33.40;38.20;;;;;;2260874;55;21068;-71
2022/08/25 13:05:42;;;;;;;1.40;0.65;;;33.60;38.50;;;;;;2264653;55;20943;-72
2022/08/25 13:08:45;;;;;;;1.52;0.77;;;33.60;37.90;;;;;;2262782;56;20984;-72
2022/08/25 13:11:23;;;;;;;3.25;1.02;;;33.60;37.80;;;;;;2266690;55;21483;-71
2022/08/25 13:17:05;;;;;;;1.92;0.77;;;33.70;37.70;;;;;;2465113;55;21040;-74
2022/08/25 13:19:32;;;;;;;1.52;0.70;;;33.70;37.90;;;;;;2260879;56;20968;-72
2022/08/25 13:21:59;;;;;;;1.23;0.68;;;33.70;37.80;;;;;;2266027;55;21875;-73
2022/08/25 13:24:59;;;;;;;2.85;0.95;;;33.70;37.50;;;;;;2315303;55;20944;-71
2022/08/25 13:27:26;;;;;;;2.28;0.98;;;33.80;36.90;;;;;;2269149;55;20952;-71
2022/08/25 13:29:58;;;;;;;1.83;0.88;;;33.80;37.30;;;;;;2261952;56;21038;-73
2022/08/25 13:32:32;;;;;;;2.30;0.97;;;33.80;37.20;;;;;;2261238;55;20967;-74
2022/08/25 13:35:17;;;;;;;1.95;1.00;;;33.80;37.10;;;;;;2265946;55;21087;-71
2022/08/25 13:37:43;;;;;;;1.45;0.75;;;33.90;37.00;;;;;;2266166;55;21492;-71
2022/08/25 13:40:25;;;;;;;1.80;0.80;;;33.90;37.40;;;;;;2267358;55;21039;-71
2022/08/25 13:43:01;;;;;;;1.83;0.80;;;34.00;36.60;;;;;;2290160;55;20945;-71
2022/08/25 13:45:30;;;;;;;2.08;0.80;;;34.00;36.70;;;;;;2265226;55;21182;-73
2022/08/25 13:47:56;;;;;;;1.60;0.75;;;34.00;36.50;;;;;;2266287;55;21794;-71
2022/08/25 13:50:32;;;;;;;1.50;0.75;;;34.10;36.60;;;;;;2264309;55;21364;-71
2022/08/25 13:53:24;;;;;;;1.55;0.77;;;34.10;36.00;;;;;;2265235;55;20979;-71
2022/08/25 13:55:51;;;;;;;;;;;34.10;35.70;;;;;;2269177;55;21035;-71
2022/08/25 13:58:42;;;;;;;1.40;0.60;;;34.20;36.30;;;;;;2267005;56;20137;-71
2022/08/25 14:01:12;;;;;;;2.22;0.70;;;34.20;35.60;;;;;;2264521;55;21043;-70
2022/08/25 14:03:40;;;;;;;1.23;0.55;;;34.20;35.60;;;;;;2265916;55;21042;-71
2022/08/25 14:06:27;;;;;;;1.65;0.80;;;34.20;35.40;;;;;;2296523;55;21408;-74
2022/08/25 14:09:06;;;;;;;1.90;0.80;;;34.30;35.00;;;;;;2265654;55;21118;-73
2022/08/25 14:11:46;;;;;;;1.52;0.70;;;34.30;35.20;;;;;;2267052;55;20947;-72
2022/08/25 14:16:58;;;;;;;1.30;0.60;;;34.30;34.70;;;;;;2273676;55;20991;-71
2022/08/25 14:19:24;;;;;;;1.20;0.60;;;34.40;35.20;;;;;;2266438;55;21079;-71
2022/08/25 14:25:31;;;;;;;0.90;0.40;;;34.50;33.80;;;;;;2265180;55;21496;-74
2022/08/25 14:28:03;;;;;;;1.23;0.68;;;34.60;34.50;;;;;;2260768;55;20947;-75
2022/08/25 14:30:33;;;;;;;1.35;0.60;;;34.60;34.30;;;;;;2269673;55;21053;-72
2022/08/25 14:33:00;;;;;;;1.80;0.80;;;34.60;34.20;;;;;;2265246;56;20988;-71
2022/08/25 14:35:26;;;;;;;1.42;0.50;;;34.70;34.40;;;;;;2261136;55;20971;-71
2022/08/25 14:37:52;;;;;;;1.25;0.52;;;34.80;34.10;;;;;;2343175;55;20960;-73
2022/08/25 14:40:19;;;;;;;2.05;0.60;;;34.80;33.70;;;;;;2265340;55;20987;-71
2022/08/25 14:42:46;;;;;;;1.52;0.62;;;34.80;33.40;;;;;;2444187;55;20971;-71
2022/08/25 14:45:14;;;;;;;1.10;0.60;;;34.80;33.50;;;;;;2355389;55;21011;-71
2022/08/25 14:48:17;;;;;;;2.17;0.65;;;34.90;33.20;;;;;;2264455;55;21020;-71
2022/08/25 14:50:44;;;;;;;1.95;0.73;;;35.00;33.00;;;;;;2266457;55;20940;-71
2022/08/25 14:53:10;;;;;;;1.50;0.65;;;35.00;33.00;;;;;;2266550;55;21002;-71
2022/08/25 14:55:39;;;;;;;1.33;0.70;;;35.00;33.00;;;;;;2260410;55;20974;-72
2022/08/25 14:58:06;;;;;;;1.35;0.60;;;35.10;32.80;;;;;;2264416;55;20957;-71
2022/08/25 15:00:43;;;;;;;2.03;0.80;;;35.10;32.60;;;;;;2267972;55;21853;-71
2022/08/25 15:03:19;;;;;;;1.55;0.73;;;35.10;32.20;;;;;;2263508;55;20971;-71
2022/08/25 15:05:45;;;;;;;1.83;0.80;;;35.10;32.00;;;;;;2303024;55;21023;-71
2022/08/25 15:11:38;;;;;;;1.55;0.70;;;35.10;32.30;;;;;;2265865;55;21043;-72
2022/08/25 15:14:05;;;;;;;1.58;0.80;;;35.10;32.00;;;;;;2260928;55;20955;-76
2022/08/25 15:16:35;;;;;;;1.20;0.60;;;35.00;32.20;;;;;;2267296;56;20988;-72